Last 24 Hours

Pinon Hills

Hourly Data | America/Los_Angeles
as of 5/6/26 6:05 AM PDT
Date & Time Temp (°F) WindChill (°F) RH (%) Dew Pt (°F) Wind Dir (°) Wind Spd (mph) Wind Gust (mph) Pressure (mb) Barometric Press (inHg) Soil Temp (°F) Solar Rad (W/m2) Latest Rain (In) Daily Rain (In) Daily Min Temp (°F) Daily Max Temp (°F) Daily Max Wind (mph) Daily ETo (in)
5/6/26 - 0600 39.4 37.6 64 28.2 SW | 217 3.1 9.0 1,019.5 30.07 62.4 1 0.00 0.00 38.1 42.8 10.3 0.000
5/6/26 - 0500 39.2 37.3 67 29.3 SW | 222 3.2 10.3 1,019.2 30.07 62.9 0 0.00 0.00 38.1 42.6 10.3 0.000
5/6/26 - 0400 39.6 37.6 69 30.2 SW | 234 3.3 8.8 1,019.0 30.06 63.4 0 0.00 0.00 38.1 42.6 8.8 0.000
5/6/26 - 0300 39.2 37.2 72 30.7 SW | 221 3.2 8.1 1,019.1 30.06 63.9 0 0.00 0.00 38.1 42.6 8.1 0.000
5/6/26 - 0200 40.2 38.4 70 31.3 SW | 217 3.2 7.5 1,018.9 30.06 64.4 0 0.00 0.00 38.1 42.6 7.5 0.000
5/6/26 - 0100 40.7 38.9 69 31.5 SW | 221 3.2 9.0 1,018.7 30.05 64.9 0 0.00 0.00 38.2 55.7 21.5 0.114
5/6/26 - 0000 41.8 39.7 71 33.1 S | 191 3.6 7.9 1,017.9 30.03 65.4 0 0.00 0.00 38.6 55.7 21.5 0.114
5/5/26 - 2300 41.3 39.7 73 33.3 SSW | 203 3.2 8.6 1,017.9 30.03 65.9 0 0.00 0.00 38.7 55.7 21.5 0.114
5/5/26 - 2200 43.2 - 73 35.0 S | 183 2.1 5.7 1,016.5 29.99 66.3 0 0.00 0.00 38.7 55.7 21.5 0.114
5/5/26 - 2100 44.5 - 71 35.8 WSW | 244 2.5 8.6 1,015.4 29.95 66.5 0 0.00 0.00 38.7 55.7 21.5 0.114
5/5/26 - 2000 48.2 45.6 66 37.4 WNW | 283 5.8 14.5 1,013.5 29.90 66.5 21 0.00 0.00 38.7 55.7 21.5 0.114
5/5/26 - 1900 51.1 - 59 37.3 WNW | 297 8.0 17.1 1,011.7 29.85 66.4 148 0.00 0.00 38.7 55.7 21.5 0.114
5/5/26 - 1800 53.4 - 53 36.9 NW | 316 9.1 18.8 1,010.5 29.81 66.1 382 0.00 0.00 38.7 55.7 21.5 0.110
5/5/26 - 1700 53.8 - 51 36.3 WNW | 298 8.4 19.7 1,010.0 29.80 65.8 486 0.00 0.00 38.7 55.7 21.5 0.101
5/5/26 - 1600 53.0 - 51 35.6 NW | 313 7.8 20.0 1,010.5 29.81 65.4 265 0.00 0.00 38.7 54.9 21.5 0.090
5/5/26 - 1500 53.0 - 50 34.7 NW | 326 8.5 20.6 1,010.8 29.82 64.8 326 0.00 0.00 38.7 54.9 21.5 0.082
5/5/26 - 1400 53.2 - 47 33.6 NW | 320 7.4 18.8 1,010.9 29.82 64.3 594 0.00 0.00 38.7 54.9 21.5 0.073
5/5/26 - 1300 51.2 - 50 33.0 WNW | 302 7.4 18.2 1,011.7 29.85 63.9 492 0.00 0.00 38.7 53.6 21.5 0.059
5/5/26 - 1200 51.0 - 49 32.4 WNW | 292 6.8 17.3 1,011.7 29.85 63.7 740 0.00 0.00 38.7 53.0 21.5 0.047
5/5/26 - 1100 48.6 44.8 58 34.4 WNW | 300 8.7 21.5 1,012.1 29.86 63.5 612 0.00 0.00 38.7 50.7 21.5 0.032
5/5/26 - 1000 47.4 43.8 58 33.4 NW | 315 7.6 20.8 1,012.2 29.86 63.5 274 0.00 0.00 38.7 48.0 20.8 0.019
5/5/26 - 0900 46.6 45.0 61 33.9 NW | 322 4.0 14.0 1,012.0 29.85 63.6 369 0.00 0.00 38.7 48.0 14.0 0.013
5/5/26 - 0800 43.5 41.8 73 35.3 NNW | 342 3.5 11.8 1,012.9 29.88 64.0 321 0.00 0.00 38.7 45.6 13.6 0.005
5/5/26 - 0700 43.2 41.6 69 33.5 SW | 233 3.4 10.1 1,012.5 29.87 64.4 76 0.00 0.00 38.7 44.1 13.6 0.001
5/5/26 - 0600 40.0 - 80 34.4 S | 183 2.5 12.7 1,013.6 29.90 64.9 1 0.00 0.00 38.7 44.1 13.6 0.000
Max 53.8 45.6 80 37.4 - 9.1 21.5 1,019.5 30.07 66.5 740 0.00 0.00 38.7 55.7 21.5 0.114
Avg 45.8 40.6 63 33.6 - 5.2 13.6 1,014.3 29.92 64.7 204 0.00 - - - - -
Min 39.2 37.2 47 28.2 - 2.1 5.7 1,010.0 29.80 62.4 0 0.00 0.00 38.1 42.6 7.5 0.000
Total - - - - - - - - - - - 0.00 - - - - -